sensor_id;sensor_type;location;lat;lon;timestamp;temperature;humidity
5779;DHT22;2916;49.798;10.022;2023-08-21T00:01:49;23.60;95.70
5779;DHT22;2916;49.798;10.022;2023-08-21T00:04:16;23.60;97.50
5779;DHT22;2916;49.798;10.022;2023-08-21T00:06:45;23.60;99.50
5779;DHT22;2916;49.798;10.022;2023-08-21T00:09:12;23.60;99.90
5779;DHT22;2916;49.798;10.022;2023-08-21T00:11:39;23.50;99.90
5779;DHT22;2916;49.798;10.022;2023-08-21T00:14:06;23.50;99.90
5779;DHT22;2916;49.798;10.022;2023-08-21T00:16:34;23.50;99.90
5779;DHT22;2916;49.798;10.022;2023-08-21T00:19:01;23.50;99.90
5779;DHT22;2916;49.798;10.022;2023-08-21T00:21:28;23.40;99.90
5779;DHT22;2916;49.798;10.022;2023-08-21T00:23:56;23.40;99.90
5779;DHT22;2916;49.798;10.022;2023-08-21T00:26:24;23.40;99.90
5779;DHT22;2916;49.798;10.022;2023-08-21T00:28:51;23.30;99.90
5779;DHT22;2916;49.798;10.022;2023-08-21T00:31:18;23.30;99.90
5779;DHT22;2916;49.798;10.022;2023-08-21T00:33:45;23.30;99.90
5779;DHT22;2916;49.798;10.022;2023-08-21T00:36:12;23.30;99.90
5779;DHT22;2916;49.798;10.022;2023-08-21T00:38:39;23.30;99.90
5779;DHT22;2916;49.798;10.022;2023-08-21T00:41:08;23.30;99.90
5779;DHT22;2916;49.798;10.022;2023-08-21T00:43:35;23.20;99.90
5779;DHT22;2916;49.798;10.022;2023-08-21T00:46:02;23.20;99.90
5779;DHT22;2916;49.798;10.022;2023-08-21T00:48:30;23.20;99.90
5779;DHT22;2916;49.798;10.022;2023-08-21T00:50:57;23.10;99.90
5779;DHT22;2916;49.798;10.022;2023-08-21T00:53:25;23.00;99.90
5779;DHT22;2916;49.798;10.022;2023-08-21T00:55:52;23.00;99.90
5779;DHT22;2916;49.798;10.022;2023-08-21T00:58:21;22.90;99.90
5779;DHT22;2916;49.798;10.022;2023-08-21T01:00:49;22.90;99.90
5779;DHT22;2916;49.798;10.022;2023-08-21T01:03:19;22.90;99.90
5779;DHT22;2916;49.798;10.022;2023-08-21T01:05:46;22.80;99.90
5779;DHT22;2916;49.798;10.022;2023-08-21T01:08:19;22.80;99.90
5779;DHT22;2916;49.798;10.022;2023-08-21T01:10:54;22.80;99.90
5779;DHT22;2916;49.798;10.022;2023-08-21T01:13:34;22.80;99.90
5779;DHT22;2916;49.798;10.022;2023-08-21T01:16:11;22.70;99.90
5779;DHT22;2916;49.798;10.022;2023-08-21T01:18:42;22.70;99.90
5779;DHT22;2916;49.798;10.022;2023-08-21T01:21:12;22.60;99.90
5779;DHT22;2916;49.798;10.022;2023-08-21T01:23:41;22.70;99.90
5779;DHT22;2916;49.798;10.022;2023-08-21T01:26:09;22.60;99.90
5779;DHT22;2916;49.798;10.022;2023-08-21T01:28:36;22.60;99.90
5779;DHT22;2916;49.798;10.022;2023-08-21T01:31:08;22.60;99.90
5779;DHT22;2916;49.798;10.022;2023-08-21T01:33:45;22.50;99.90
5779;DHT22;2916;49.798;10.022;2023-08-21T01:36:17;22.50;99.90
5779;DHT22;2916;49.798;10.022;2023-08-21T01:38:46;22.50;99.90
5779;DHT22;2916;49.798;10.022;2023-08-21T01:41:14;22.50;99.90
5779;DHT22;2916;49.798;10.022;2023-08-21T01:43:41;22.40;99.90
5779;DHT22;2916;49.798;10.022;2023-08-21T01:46:09;22.40;99.90
5779;DHT22;2916;49.798;10.022;2023-08-21T01:48:36;22.40;99.90
5779;DHT22;2916;49.798;10.022;2023-08-21T01:51:03;22.40;99.90
5779;DHT22;2916;49.798;10.022;2023-08-21T01:53:30;22.40;99.90
5779;DHT22;2916;49.798;10.022;2023-08-21T01:55:59;22.40;99.90
5779;DHT22;2916;49.798;10.022;2023-08-21T01:58:26;22.30;99.90
5779;DHT22;2916;49.798;10.022;2023-08-21T02:00:53;22.30;99.90
5779;DHT22;2916;49.798;10.022;2023-08-21T02:03:20;22.30;99.90
5779;DHT22;2916;49.798;10.022;2023-08-21T02:05:47;22.20;99.90
5779;DHT22;2916;49.798;10.022;2023-08-21T02:08:15;22.20;99.90
5779;DHT22;2916;49.798;10.022;2023-08-21T02:10:50;22.20;99.90
5779;DHT22;2916;49.798;10.022;2023-08-21T02:13:19;22.20;99.90
5779;DHT22;2916;49.798;10.022;2023-08-21T02:15:46;22.10;99.90
5779;DHT22;2916;49.798;10.022;2023-08-21T02:18:14;22.10;99.90
5779;DHT22;2916;49.798;10.022;2023-08-21T02:20:42;22.10;99.90
5779;DHT22;2916;49.798;10.022;2023-08-21T02:23:09;22.00;99.90
5779;DHT22;2916;49.798;10.022;2023-08-21T02:25:36;22.00;99.90
5779;DHT22;2916;49.798;10.022;2023-08-21T02:28:04;22.00;99.90
5779;DHT22;2916;49.798;10.022;2023-08-21T02:30:33;22.00;99.90
5779;DHT22;2916;49.798;10.022;2023-08-21T02:33:00;22.00;99.90
5779;DHT22;2916;49.798;10.022;2023-08-21T02:35:27;22.00;99.90
5779;DHT22;2916;49.798;10.022;2023-08-21T02:37:54;21.90;99.90
5779;DHT22;2916;49.798;10.022;2023-08-21T02:40:21;21.90;99.90
5779;DHT22;2916;49.798;10.022;2023-08-21T02:42:49;21.90;99.90
5779;DHT22;2916;49.798;10.022;2023-08-21T02:45:16;21.90;99.90
5779;DHT22;2916;49.798;10.022;2023-08-21T02:47:46;21.80;99.90
5779;DHT22;2916;49.798;10.022;2023-08-21T02:50:13;21.70;99.90
5779;DHT22;2916;49.798;10.022;2023-08-21T02:52:40;21.80;99.90
5779;DHT22;2916;49.798;10.022;2023-08-21T02:55:08;21.70;99.90
5779;DHT22;2916;49.798;10.022;2023-08-21T02:57:35;21.80;99.90
5779;DHT22;2916;49.798;10.022;2023-08-21T03:00:03;21.70;99.90
5779;DHT22;2916;49.798;10.022;2023-08-21T03:02:31;21.70;99.90
5779;DHT22;2916;49.798;10.022;2023-08-21T03:05:00;21.70;99.90
5779;DHT22;2916;49.798;10.022;2023-08-21T03:07:27;21.70;99.90
5779;DHT22;2916;49.798;10.022;2023-08-21T03:09:54;21.60;99.90
5779;DHT22;2916;49.798;10.022;2023-08-21T03:12:21;21.70;99.90
5779;DHT22;2916;49.798;10.022;2023-08-21T03:14:48;21.60;99.90
5779;DHT22;2916;49.798;10.022;2023-08-21T03:17:15;21.60;99.90
5779;DHT22;2916;49.798;10.022;2023-08-21T03:19:42;21.60;99.90
5779;DHT22;2916;49.798;10.022;2023-08-21T03:22:11;21.60;99.90
5779;DHT22;2916;49.798;10.022;2023-08-21T03:24:39;21.50;99.90
5779;DHT22;2916;49.798;10.022;2023-08-21T03:27:06;21.50;99.90
5779;DHT22;2916;49.798;10.022;2023-08-21T03:29:33;21.50;99.90
5779;DHT22;2916;49.798;10.022;2023-08-21T03:32:00;21.50;99.90
5779;DHT22;2916;49.798;10.022;2023-08-21T03:34:27;21.50;99.90
5779;DHT22;2916;49.798;10.022;2023-08-21T03:36:55;21.50;99.90
5779;DHT22;2916;49.798;10.022;2023-08-21T03:39:23;21.50;99.90
5779;DHT22;2916;49.798;10.022;2023-08-21T03:41:50;21.40;99.90
5779;DHT22;2916;49.798;10.022;2023-08-21T03:44:17;21.40;99.90
5779;DHT22;2916;49.798;10.022;2023-08-21T03:46:44;21.40;99.90
5779;DHT22;2916;49.798;10.022;2023-08-21T03:49:11;21.30;99.90
5779;DHT22;2916;49.798;10.022;2023-08-21T03:51:38;21.30;99.90
5779;DHT22;2916;49.798;10.022;2023-08-21T03:54:05;21.40;99.90
5779;DHT22;2916;49.798;10.022;2023-08-21T03:56:34;21.40;99.90
5779;DHT22;2916;49.798;10.022;2023-08-21T03:59:01;21.30;99.90
5779;DHT22;2916;49.798;10.022;2023-08-21T04:01:28;21.30;99.90
5779;DHT22;2916;49.798;10.022;2023-08-21T04:03:55;21.30;99.90
5779;DHT22;2916;49.798;10.022;2023-08-21T04:06:22;21.30;99.90
5779;DHT22;2916;49.798;10.022;2023-08-21T04:08:50;21.20;99.90
5779;DHT22;2916;49.798;10.022;2023-08-21T04:11:17;21.20;99.90
5779;DHT22;2916;49.798;10.022;2023-08-21T04:13:45;21.20;99.90
5779;DHT22;2916;49.798;10.022;2023-08-21T04:16:12;21.20;99.90
5779;DHT22;2916;49.798;10.022;2023-08-21T04:18:40;21.20;99.90
5779;DHT22;2916;49.798;10.022;2023-08-21T04:21:07;21.20;99.90
5779;DHT22;2916;49.798;10.022;2023-08-21T04:23:35;21.20;99.90
5779;DHT22;2916;49.798;10.022;2023-08-21T04:26:02;21.20;99.90
5779;DHT22;2916;49.798;10.022;2023-08-21T04:28:30;21.20;99.90
5779;DHT22;2916;49.798;10.022;2023-08-21T04:30:59;21.20;99.90
5779;DHT22;2916;49.798;10.022;2023-08-21T04:33:28;21.20;99.90
5779;DHT22;2916;49.798;10.022;2023-08-21T04:35:55;21.20;99.90
5779;DHT22;2916;49.798;10.022;2023-08-21T04:38:23;21.20;99.90
5779;DHT22;2916;49.798;10.022;2023-08-21T04:40:50;21.20;99.90
5779;DHT22;2916;49.798;10.022;2023-08-21T04:43:17;21.10;99.90
5779;DHT22;2916;49.798;10.022;2023-08-21T04:45:48;21.10;99.90
5779;DHT22;2916;49.798;10.022;2023-08-21T04:48:17;21.20;99.90
5779;DHT22;2916;49.798;10.022;2023-08-21T04:50:45;21.20;99.90
5779;DHT22;2916;49.798;10.022;2023-08-21T04:53:12;21.20;99.90
5779;DHT22;2916;49.798;10.022;2023-08-21T04:55:41;21.20;99.90
5779;DHT22;2916;49.798;10.022;2023-08-21T04:58:09;21.20;99.90
5779;DHT22;2916;49.798;10.022;2023-08-21T05:00:36;21.20;99.90
5779;DHT22;2916;49.798;10.022;2023-08-21T05:03:05;21.20;99.90
5779;DHT22;2916;49.798;10.022;2023-08-21T05:05:36;21.30;99.90
5779;DHT22;2916;49.798;10.022;2023-08-21T05:08:03;21.30;99.90
5779;DHT22;2916;49.798;10.022;2023-08-21T05:10:31;21.30;99.90
5779;DHT22;2916;49.798;10.022;2023-08-21T05:12:58;21.30;99.90
5779;DHT22;2916;49.798;10.022;2023-08-21T05:15:25;21.50;99.90
5779;DHT22;2916;49.798;10.022;2023-08-21T05:17:52;21.90;99.90
5779;DHT22;2916;49.798;10.022;2023-08-21T05:20:19;22.20;99.90
5779;DHT22;2916;49.798;10.022;2023-08-21T05:22:47;22.70;99.90
5779;DHT22;2916;49.798;10.022;2023-08-21T05:25:15;23.30;99.90
5779;DHT22;2916;49.798;10.022;2023-08-21T05:27:42;23.90;99.90
5779;DHT22;2916;49.798;10.022;2023-08-21T05:30:10;24.30;99.90
5779;DHT22;2916;49.798;10.022;2023-08-21T05:32:39;24.80;99.90
5779;DHT22;2916;49.798;10.022;2023-08-21T05:35:06;25.30;99.90
5779;DHT22;2916;49.798;10.022;2023-08-21T05:37:34;25.70;99.90
5779;DHT22;2916;49.798;10.022;2023-08-21T05:40:04;26.10;93.00
5779;DHT22;2916;49.798;10.022;2023-08-21T05:42:33;26.40;79.60
5779;DHT22;2916;49.798;10.022;2023-08-21T05:45:00;26.50;64.30
5779;DHT22;2916;49.798;10.022;2023-08-21T05:47:27;26.90;59.90
5779;DHT22;2916;49.798;10.022;2023-08-21T05:49:54;27.20;44.70
5779;DHT22;2916;49.798;10.022;2023-08-21T05:52:22;27.60;31.60
5779;DHT22;2916;49.798;10.022;2023-08-21T05:54:49;27.70;32.80
5779;DHT22;2916;49.798;10.022;2023-08-21T05:57:18;28.10;24.80
5779;DHT22;2916;49.798;10.022;2023-08-21T05:59:46;28.20;16.20
5779;DHT22;2916;49.798;10.022;2023-08-21T06:02:13;28.10;15.50
5779;DHT22;2916;49.798;10.022;2023-08-21T06:04:41;28.40;19.30
5779;DHT22;2916;49.798;10.022;2023-08-21T06:07:09;28.80;11.70
5779;DHT22;2916;49.798;10.022;2023-08-21T06:09:36;29.20;7.60
5779;DHT22;2916;49.798;10.022;2023-08-21T06:12:04;29.10;1.00
5779;DHT22;2916;49.798;10.022;2023-08-21T06:14:33;28.70;5.70
5779;DHT22;2916;49.798;10.022;2023-08-21T06:17:02;29.30;2.20
5779;DHT22;2916;49.798;10.022;2023-08-21T06:19:30;29.60;1.00
5779;DHT22;2916;49.798;10.022;2023-08-21T06:21:58;30.00;1.00
5779;DHT22;2916;49.798;10.022;2023-08-21T06:24:25;30.10;1.00
5779;DHT22;2916;49.798;10.022;2023-08-21T06:26:52;30.60;1.00
5779;DHT22;2916;49.798;10.022;2023-08-21T06:29:19;30.00;1.00
5779;DHT22;2916;49.798;10.022;2023-08-21T06:31:48;29.80;1.00
5779;DHT22;2916;49.798;10.022;2023-08-21T06:34:15;29.80;1.00
5779;DHT22;2916;49.798;10.022;2023-08-21T06:36:42;29.90;1.00
5779;DHT22;2916;49.798;10.022;2023-08-21T06:39:09;29.80;1.00
5779;DHT22;2916;49.798;10.022;2023-08-21T06:41:36;29.60;1.00
5779;DHT22;2916;49.798;10.022;2023-08-21T06:44:04;29.20;1.00
5779;DHT22;2916;49.798;10.022;2023-08-21T06:46:31;29.30;1.00
5779;DHT22;2916;49.798;10.022;2023-08-21T06:48:59;29.20;1.00
5779;DHT22;2916;49.798;10.022;2023-08-21T06:51:26;29.60;1.00
5779;DHT22;2916;49.798;10.022;2023-08-21T06:53:53;30.10;1.00
5779;DHT22;2916;49.798;10.022;2023-08-21T06:56:21;30.50;1.00
5779;DHT22;2916;49.798;10.022;2023-08-21T06:58:48;31.00;1.00
5779;DHT22;2916;49.798;10.022;2023-08-21T07:01:16;31.50;1.00
5779;DHT22;2916;49.798;10.022;2023-08-21T07:03:43;31.80;1.00
5779;DHT22;2916;49.798;10.022;2023-08-21T07:06:12;31.80;1.00
5779;DHT22;2916;49.798;10.022;2023-08-21T07:08:39;32.00;1.00
5779;DHT22;2916;49.798;10.022;2023-08-21T07:11:06;32.30;1.00
5779;DHT22;2916;49.798;10.022;2023-08-21T07:13:35;32.20;1.00
5779;DHT22;2916;49.798;10.022;2023-08-21T07:16:03;32.70;1.00
5779;DHT22;2916;49.798;10.022;2023-08-21T07:18:32;32.90;1.00
5779;DHT22;2916;49.798;10.022;2023-08-21T07:21:00;33.00;1.00
5779;DHT22;2916;49.798;10.022;2023-08-21T07:23:30;33.30;1.00
5779;DHT22;2916;49.798;10.022;2023-08-21T07:25:58;33.50;1.00
5779;DHT22;2916;49.798;10.022;2023-08-21T07:28:26;33.70;1.00
5779;DHT22;2916;49.798;10.022;2023-08-21T07:30:56;33.70;1.00
5779;DHT22;2916;49.798;10.022;2023-08-21T07:33:24;34.00;1.00
5779;DHT22;2916;49.798;10.022;2023-08-21T07:35:58;33.90;1.00
5779;DHT22;2916;49.798;10.022;2023-08-21T07:38:27;33.80;1.00
5779;DHT22;2916;49.798;10.022;2023-08-21T07:41:04;33.70;1.00
5779;DHT22;2916;49.798;10.022;2023-08-21T07:43:33;34.20;1.00
5779;DHT22;2916;49.798;10.022;2023-08-21T07:46:02;34.70;1.00
5779;DHT22;2916;49.798;10.022;2023-08-21T07:48:30;34.70;1.00
5779;DHT22;2916;49.798;10.022;2023-08-21T07:50:57;34.40;1.00
5779;DHT22;2916;49.798;10.022;2023-08-21T07:53:25;34.30;1.00
5779;DHT22;2916;49.798;10.022;2023-08-21T07:55:53;34.70;1.00
5779;DHT22;2916;49.798;10.022;2023-08-21T07:58:21;33.80;1.00
5779;DHT22;2916;49.798;10.022;2023-08-21T08:00:48;33.90;1.00
5779;DHT22;2916;49.798;10.022;2023-08-21T08:03:15;34.40;1.00
5779;DHT22;2916;49.798;10.022;2023-08-21T08:05:43;34.80;1.00
5779;DHT22;2916;49.798;10.022;2023-08-21T08:08:10;34.60;1.00
5779;DHT22;2916;49.798;10.022;2023-08-21T08:10:37;35.00;1.00
5779;DHT22;2916;49.798;10.022;2023-08-21T08:13:05;35.20;1.00
5779;DHT22;2916;49.798;10.022;2023-08-21T08:15:34;35.60;1.00
5779;DHT22;2916;49.798;10.022;2023-08-21T08:18:02;35.60;1.00
5779;DHT22;2916;49.798;10.022;2023-08-21T08:20:31;35.70;1.00
5779;DHT22;2916;49.798;10.022;2023-08-21T08:22:58;35.80;1.00
5779;DHT22;2916;49.798;10.022;2023-08-21T08:25:25;34.40;1.00
5779;DHT22;2916;49.798;10.022;2023-08-21T08:27:52;35.40;1.00
5779;DHT22;2916;49.798;10.022;2023-08-21T08:30:20;35.80;1.00
5779;DHT22;2916;49.798;10.022;2023-08-21T08:32:48;36.00;1.00
5779;DHT22;2916;49.798;10.022;2023-08-21T08:35:16;36.60;1.00
5779;DHT22;2916;49.798;10.022;2023-08-21T08:37:43;36.40;1.00
5779;DHT22;2916;49.798;10.022;2023-08-21T08:40:11;36.60;1.00
5779;DHT22;2916;49.798;10.022;2023-08-21T08:42:38;36.50;1.00
5779;DHT22;2916;49.798;10.022;2023-08-21T08:45:06;36.10;1.00
5779;DHT22;2916;49.798;10.022;2023-08-21T08:47:35;36.10;1.00
5779;DHT22;2916;49.798;10.022;2023-08-21T08:50:05;34.40;1.00
5779;DHT22;2916;49.798;10.022;2023-08-21T08:52:35;35.70;1.00
5779;DHT22;2916;49.798;10.022;2023-08-21T08:55:04;36.30;1.00
5779;DHT22;2916;49.798;10.022;2023-08-21T08:57:33;36.70;1.00
5779;DHT22;2916;49.798;10.022;2023-08-21T09:00:01;36.80;1.00
5779;DHT22;2916;49.798;10.022;2023-08-21T09:02:29;37.00;1.00
5779;DHT22;2916;49.798;10.022;2023-08-21T09:04:56;34.50;1.00
5779;DHT22;2916;49.798;10.022;2023-08-21T09:07:25;34.70;1.00
5779;DHT22;2916;49.798;10.022;2023-08-21T09:09:52;35.20;1.00
5779;DHT22;2916;49.798;10.022;2023-08-21T09:12:20;35.70;1.00
5779;DHT22;2916;49.798;10.022;2023-08-21T09:14:47;35.20;1.00
5779;DHT22;2916;49.798;10.022;2023-08-21T09:17:15;35.80;1.00
5779;DHT22;2916;49.798;10.022;2023-08-21T09:19:43;34.10;1.00
5779;DHT22;2916;49.798;10.022;2023-08-21T09:22:11;35.50;1.00
5779;DHT22;2916;49.798;10.022;2023-08-21T09:25:00;35.40;1.00
5779;DHT22;2916;49.798;10.022;2023-08-21T09:27:32;34.40;1.00
5779;DHT22;2916;49.798;10.022;2023-08-21T09:30:00;34.00;1.00
5779;DHT22;2916;49.798;10.022;2023-08-21T09:32:29;34.00;1.00
5779;DHT22;2916;49.798;10.022;2023-08-21T09:34:57;35.30;1.00
5779;DHT22;2916;49.798;10.022;2023-08-21T09:37:28;35.20;1.00
5779;DHT22;2916;49.798;10.022;2023-08-21T09:40:02;35.60;1.00
5779;DHT22;2916;49.798;10.022;2023-08-21T09:42:32;35.50;1.00
5779;DHT22;2916;49.798;10.022;2023-08-21T09:45:00;34.80;1.00
5779;DHT22;2916;49.798;10.022;2023-08-21T09:47:30;34.90;1.00
5779;DHT22;2916;49.798;10.022;2023-08-21T09:49:59;35.80;1.00
5779;DHT22;2916;49.798;10.022;2023-08-21T09:52:26;36.70;1.00
5779;DHT22;2916;49.798;10.022;2023-08-21T09:54:54;36.80;1.00
5779;DHT22;2916;49.798;10.022;2023-08-21T09:57:24;36.60;1.00
5779;DHT22;2916;49.798;10.022;2023-08-21T09:59:53;36.80;1.00
5779;DHT22;2916;49.798;10.022;2023-08-21T10:02:21;36.90;1.00
5779;DHT22;2916;49.798;10.022;2023-08-21T10:04:50;36.70;1.00
5779;DHT22;2916;49.798;10.022;2023-08-21T10:07:21;37.30;1.00
5779;DHT22;2916;49.798;10.022;2023-08-21T10:09:54;37.40;1.00
5779;DHT22;2916;49.798;10.022;2023-08-21T10:12:24;37.20;1.00
5779;DHT22;2916;49.798;10.022;2023-08-21T10:14:51;37.50;1.00
5779;DHT22;2916;49.798;10.022;2023-08-21T10:17:19;37.70;1.00
5779;DHT22;2916;49.798;10.022;2023-08-21T10:19:51;36.50;1.00
5779;DHT22;2916;49.798;10.022;2023-08-21T10:22:41;36.70;1.00
5779;DHT22;2916;49.798;10.022;2023-08-21T10:25:17;37.20;1.00
5779;DHT22;2916;49.798;10.022;2023-08-21T10:27:52;36.80;1.00
5779;DHT22;2916;49.798;10.022;2023-08-21T10:30:22;36.70;1.00
5779;DHT22;2916;49.798;10.022;2023-08-21T10:32:52;36.80;1.00
5779;DHT22;2916;49.798;10.022;2023-08-21T10:35:22;37.50;1.00
5779;DHT22;2916;49.798;10.022;2023-08-21T10:38:06;37.90;1.00
5779;DHT22;2916;49.798;10.022;2023-08-21T10:40:35;38.20;1.00
5779;DHT22;2916;49.798;10.022;2023-08-21T10:43:04;38.40;1.00
5779;DHT22;2916;49.798;10.022;2023-08-21T10:45:54;37.90;1.00
5779;DHT22;2916;49.798;10.022;2023-08-21T10:48:22;37.10;1.00
5779;DHT22;2916;49.798;10.022;2023-08-21T10:50:49;36.40;1.00
5779;DHT22;2916;49.798;10.022;2023-08-21T10:53:18;36.40;1.00
5779;DHT22;2916;49.798;10.022;2023-08-21T10:55:53;36.60;1.00
5779;DHT22;2916;49.798;10.022;2023-08-21T10:58:22;36.60;1.00
5779;DHT22;2916;49.798;10.022;2023-08-21T11:00:56;35.20;1.00
5779;DHT22;2916;49.798;10.022;2023-08-21T11:03:23;35.10;1.00
5779;DHT22;2916;49.798;10.022;2023-08-21T11:06:04;34.90;1.00
5779;DHT22;2916;49.798;10.022;2023-08-21T11:08:33;35.60;1.00
5779;DHT22;2916;49.798;10.022;2023-08-21T11:11:01;35.00;1.00
5779;DHT22;2916;49.798;10.022;2023-08-21T11:13:31;35.30;1.00
5779;DHT22;2916;49.798;10.022;2023-08-21T11:15:59;35.50;1.00
5779;DHT22;2916;49.798;10.022;2023-08-21T11:18:31;34.90;1.00
5779;DHT22;2916;49.798;10.022;2023-08-21T11:21:06;35.60;1.00
5779;DHT22;2916;49.798;10.022;2023-08-21T11:23:36;35.40;1.00
5779;DHT22;2916;49.798;10.022;2023-08-21T11:26:05;35.40;1.00
5779;DHT22;2916;49.798;10.022;2023-08-21T11:28:35;34.70;1.00
5779;DHT22;2916;49.798;10.022;2023-08-21T11:31:02;34.00;1.00
5779;DHT22;2916;49.798;10.022;2023-08-21T11:33:31;35.20;1.00
5779;DHT22;2916;49.798;10.022;2023-08-21T11:36:00;35.60;1.00
5779;DHT22;2916;49.798;10.022;2023-08-21T11:38:27;36.00;1.00
5779;DHT22;2916;49.798;10.022;2023-08-21T11:40:56;35.20;1.00
5779;DHT22;2916;49.798;10.022;2023-08-21T11:43:35;35.70;1.00
5779;DHT22;2916;49.798;10.022;2023-08-21T11:46:03;36.30;1.00
5779;DHT22;2916;49.798;10.022;2023-08-21T11:48:32;36.30;1.00
5779;DHT22;2916;49.798;10.022;2023-08-21T11:51:00;35.20;1.00
5779;DHT22;2916;49.798;10.022;2023-08-21T11:53:32;35.80;1.00
5779;DHT22;2916;49.798;10.022;2023-08-21T11:56:00;36.30;1.00
5779;DHT22;2916;49.798;10.022;2023-08-21T11:58:28;36.30;1.00
5779;DHT22;2916;49.798;10.022;2023-08-21T12:01:02;36.60;1.00
5779;DHT22;2916;49.798;10.022;2023-08-21T12:03:30;36.30;1.00
5779;DHT22;2916;49.798;10.022;2023-08-21T12:06:05;36.30;1.00
5779;DHT22;2916;49.798;10.022;2023-08-21T12:08:33;35.70;1.00
5779;DHT22;2916;49.798;10.022;2023-08-21T12:11:00;36.00;1.00
5779;DHT22;2916;49.798;10.022;2023-08-21T12:13:27;36.40;1.00
5779;DHT22;2916;49.798;10.022;2023-08-21T12:15:56;36.90;1.00
5779;DHT22;2916;49.798;10.022;2023-08-21T12:18:23;36.70;1.00
5779;DHT22;2916;49.798;10.022;2023-08-21T12:20:51;36.90;1.00
5779;DHT22;2916;49.798;10.022;2023-08-21T12:23:18;36.90;1.00
5779;DHT22;2916;49.798;10.022;2023-08-21T12:25:45;36.70;1.00
5779;DHT22;2916;49.798;10.022;2023-08-21T12:28:12;36.50;1.00
5779;DHT22;2916;49.798;10.022;2023-08-21T12:30:39;36.90;1.00
5779;DHT22;2916;49.798;10.022;2023-08-21T12:33:07;37.00;1.00
5779;DHT22;2916;49.798;10.022;2023-08-21T12:35:34;36.60;1.00
5779;DHT22;2916;49.798;10.022;2023-08-21T12:38:11;36.70;1.00
5779;DHT22;2916;49.798;10.022;2023-08-21T12:40:39;36.50;1.00
5779;DHT22;2916;49.798;10.022;2023-08-21T12:43:06;36.20;1.00
5779;DHT22;2916;49.798;10.022;2023-08-21T12:45:35;35.80;1.00
5779;DHT22;2916;49.798;10.022;2023-08-21T12:48:03;35.40;1.00
5779;DHT22;2916;49.798;10.022;2023-08-21T12:50:32;35.50;1.00
5779;DHT22;2916;49.798;10.022;2023-08-21T12:52:59;35.80;1.00
5779;DHT22;2916;49.798;10.022;2023-08-21T12:55:27;35.90;1.00
5779;DHT22;2916;49.798;10.022;2023-08-21T12:57:56;35.60;1.00
5779;DHT22;2916;49.798;10.022;2023-08-21T13:00:23;35.40;1.00
5779;DHT22;2916;49.798;10.022;2023-08-21T13:02:50;35.30;1.00
5779;DHT22;2916;49.798;10.022;2023-08-21T13:05:17;35.60;1.00
5779;DHT22;2916;49.798;10.022;2023-08-21T13:07:46;35.80;1.00
5779;DHT22;2916;49.798;10.022;2023-08-21T13:10:13;35.60;1.00
5779;DHT22;2916;49.798;10.022;2023-08-21T13:12:40;35.50;1.00
5779;DHT22;2916;49.798;10.022;2023-08-21T13:15:08;35.60;1.00
5779;DHT22;2916;49.798;10.022;2023-08-21T13:17:36;36.10;1.00
5779;DHT22;2916;49.798;10.022;2023-08-21T13:20:04;36.40;1.00
5779;DHT22;2916;49.798;10.022;2023-08-21T13:22:46;36.60;1.00
5779;DHT22;2916;49.798;10.022;2023-08-21T13:25:14;36.60;1.00
5779;DHT22;2916;49.798;10.022;2023-08-21T13:27:42;36.30;1.00
5779;DHT22;2916;49.798;10.022;2023-08-21T13:30:11;35.90;1.00
5779;DHT22;2916;49.798;10.022;2023-08-21T13:32:39;36.00;1.00
5779;DHT22;2916;49.798;10.022;2023-08-21T13:35:07;35.80;1.00
5779;DHT22;2916;49.798;10.022;2023-08-21T13:37:34;36.00;1.00
5779;DHT22;2916;49.798;10.022;2023-08-21T13:40:05;35.70;1.00
5779;DHT22;2916;49.798;10.022;2023-08-21T13:42:37;35.70;1.00
5779;DHT22;2916;49.798;10.022;2023-08-21T13:45:07;35.60;1.00
5779;DHT22;2916;49.798;10.022;2023-08-21T13:47:37;35.10;1.00
5779;DHT22;2916;49.798;10.022;2023-08-21T13:50:06;34.90;1.00
5779;DHT22;2916;49.798;10.022;2023-08-21T13:52:34;35.40;1.00
5779;DHT22;2916;49.798;10.022;2023-08-21T13:55:01;34.90;1.00
5779;DHT22;2916;49.798;10.022;2023-08-21T13:57:30;34.90;1.00
5779;DHT22;2916;49.798;10.022;2023-08-21T13:59:58;34.90;1.00
5779;DHT22;2916;49.798;10.022;2023-08-21T14:02:26;35.10;1.00
5779;DHT22;2916;49.798;10.022;2023-08-21T14:04:53;35.00;1.00
5779;DHT22;2916;49.798;10.022;2023-08-21T14:07:21;35.40;1.00
5779;DHT22;2916;49.798;10.022;2023-08-21T14:09:48;35.00;1.00
5779;DHT22;2916;49.798;10.022;2023-08-21T14:12:16;34.90;1.00
5779;DHT22;2916;49.798;10.022;2023-08-21T14:14:43;34.70;1.00
5779;DHT22;2916;49.798;10.022;2023-08-21T14:17:10;34.80;1.00
5779;DHT22;2916;49.798;10.022;2023-08-21T14:19:38;34.90;1.00
5779;DHT22;2916;49.798;10.022;2023-08-21T14:22:05;35.00;1.00
5779;DHT22;2916;49.798;10.022;2023-08-21T14:24:33;34.90;1.00
5779;DHT22;2916;49.798;10.022;2023-08-21T14:27:00;34.90;1.00
5779;DHT22;2916;49.798;10.022;2023-08-21T14:29:27;34.80;1.00
5779;DHT22;2916;49.798;10.022;2023-08-21T14:31:55;34.70;1.00
5779;DHT22;2916;49.798;10.022;2023-08-21T14:34:23;34.50;1.00
5779;DHT22;2916;49.798;10.022;2023-08-21T14:36:50;34.30;1.00
5779;DHT22;2916;49.798;10.022;2023-08-21T14:39:17;34.10;1.00
5779;DHT22;2916;49.798;10.022;2023-08-21T14:41:45;34.10;1.00
5779;DHT22;2916;49.798;10.022;2023-08-21T14:44:12;34.20;1.00
5779;DHT22;2916;49.798;10.022;2023-08-21T14:46:42;34.10;1.00
5779;DHT22;2916;49.798;10.022;2023-08-21T14:49:09;34.10;1.00
5779;DHT22;2916;49.798;10.022;2023-08-21T14:51:36;34.20;1.00
5779;DHT22;2916;49.798;10.022;2023-08-21T14:54:04;34.10;1.00
5779;DHT22;2916;49.798;10.022;2023-08-21T14:56:31;33.90;1.00
5779;DHT22;2916;49.798;10.022;2023-08-21T14:58:58;33.80;1.00
5779;DHT22;2916;49.798;10.022;2023-08-21T15:01:26;33.70;1.00
5779;DHT22;2916;49.798;10.022;2023-08-21T15:03:54;33.90;1.00
5779;DHT22;2916;49.798;10.022;2023-08-21T15:06:21;33.80;1.00
5779;DHT22;2916;49.798;10.022;2023-08-21T15:08:48;33.90;1.00
5779;DHT22;2916;49.798;10.022;2023-08-21T15:11:15;34.00;1.00
5779;DHT22;2916;49.798;10.022;2023-08-21T15:13:42;34.00;1.00
5779;DHT22;2916;49.798;10.022;2023-08-21T15:16:10;34.00;1.00
5779;DHT22;2916;49.798;10.022;2023-08-21T15:18:37;34.20;1.00
5779;DHT22;2916;49.798;10.022;2023-08-21T15:21:05;34.20;1.00
5779;DHT22;2916;49.798;10.022;2023-08-21T15:23:32;34.10;1.00
5779;DHT22;2916;49.798;10.022;2023-08-21T15:25:59;34.10;1.00
5779;DHT22;2916;49.798;10.022;2023-08-21T15:28:26;34.20;1.00
5779;DHT22;2916;49.798;10.022;2023-08-21T15:30:54;34.10;1.00
5779;DHT22;2916;49.798;10.022;2023-08-21T15:33:21;34.30;1.00
5779;DHT22;2916;49.798;10.022;2023-08-21T15:35:48;34.40;1.00
5779;DHT22;2916;49.798;10.022;2023-08-21T15:38:17;34.20;1.00
5779;DHT22;2916;49.798;10.022;2023-08-21T15:40:44;34.20;1.00
5779;DHT22;2916;49.798;10.022;2023-08-21T15:43:11;34.00;1.00
5779;DHT22;2916;49.798;10.022;2023-08-21T15:45:39;34.10;1.00
5779;DHT22;2916;49.798;10.022;2023-08-21T15:48:06;34.10;1.00
5779;DHT22;2916;49.798;10.022;2023-08-21T15:50:34;34.20;1.00
5779;DHT22;2916;49.798;10.022;2023-08-21T15:53:01;34.30;1.00
5779;DHT22;2916;49.798;10.022;2023-08-21T15:55:29;34.20;1.00
5779;DHT22;2916;49.798;10.022;2023-08-21T15:57:56;34.10;1.00
5779;DHT22;2916;49.798;10.022;2023-08-21T16:00:24;34.10;1.00
5779;DHT22;2916;49.798;10.022;2023-08-21T16:02:51;34.00;1.00